Ship Status Report: callsign YJRS2

sailwx.info

Track history (hours):
 
Tides and Currents Weather Stations Pressure Air Temp Water Temp Dewpoint Dewpoint Depression Visibility Wind Speed Wind Dir Waves Ship Positions

Callsign YJRS2 (name unknown)

Last reported at 2018-Jan-21 03:03 UTC. Time now 2018-Jan-23 21:44 UTC.
Position N 17°39' W 063°15'.

Length 28 m.

Type: Diving. MMSI: 577334000.

Date/timePositionNaut miles runAvg speedWind from/ knotsBaromVisibWave heightAir tempDewpointWater temp
2018-Jan-21 03:03N 17°39' W 063°15'0 8.5
2018-Jan-21 03:00N 17°39' W 063°15'5 9.0
2018-Jan-21 02:30N 17°43' W 063°13'4 8.9
2018-Jan-21 02:00N 17°47' W 063°11'4 8.3
2018-Jan-21 01:30N 17°51' W 063°09'4 8.9
2018-Jan-21 01:00N 17°55' W 063°07'5 8.9
2018-Jan-21 00:29N 17°59' W 063°04'2 0.1
2018-Jan-19 16:46N 18°01' W 063°03'2 8.6
2018-Jan-19 16:29N 17°58' W 063°04'5 8.9
2018-Jan-19 15:57N 17°54' W 063°07'15 8.9
2018-Jan-19 14:15N 17°41' W 063°14'3 0.1
2018-Jan-18 11:30N 17°38' W 063°16'  
Track history (hours):
 
Tides and Currents Weather Stations Pressure Air Temp Water Temp Dewpoint Dewpoint Depression Visibility Wind Speed Wind Dir Waves Ship Positions

Callsign YJRS2 (name unknown)

Last reported at 2018-Jan-21 03:03 UTC. Time now 2018-Jan-23 21:44 UTC.
Position N 17°39' W 063°15'.

Length 28 m.

Type: Diving. MMSI: 577334000.

Date/timePositionNaut miles runAvg speedWind from/ knotsBaromVisibWave heightAir tempDewpointWater temp
2018-Jan-21 03:03N 17°39' W 063°15'0 8.5
2018-Jan-21 03:00N 17°39' W 063°15'5 9.0
2018-Jan-21 02:30N 17°43' W 063°13'4 8.9
2018-Jan-21 02:00N 17°47' W 063°11'4 8.3
2018-Jan-21 01:30N 17°51' W 063°09'4 8.9
2018-Jan-21 01:00N 17°55' W 063°07'5 8.9
2018-Jan-21 00:29N 17°59' W 063°04'2 0.1
2018-Jan-19 16:46N 18°01' W 063°03'2 8.6
2018-Jan-19 16:29N 17°58' W 063°04'5 8.9
2018-Jan-19 15:57N 17°54' W 063°07'15 8.9
2018-Jan-19 14:15N 17°41' W 063°14'3 0.1
2018-Jan-18 11:30N 17°38' W 063°16'  

Dump ship's entire track history